sensor_id;sensor_type;location;lat;lon;timestamp;P1;durP1;ratioP1;P2;durP2;ratioP2
46941;SDS011;32676;52.630;4.896;2023-03-01T00:02:13;16.10;;;7.53;;
46941;SDS011;32676;52.630;4.896;2023-03-01T00:04:41;32.85;;;9.02;;
46941;SDS011;32676;52.630;4.896;2023-03-01T00:07:07;14.52;;;9.05;;
46941;SDS011;32676;52.630;4.896;2023-03-01T00:09:35;15.75;;;9.50;;
46941;SDS011;32676;52.630;4.896;2023-03-01T00:12:02;18.55;;;9.98;;
46941;SDS011;32676;52.630;4.896;2023-03-01T00:14:29;16.88;;;7.88;;
46941;SDS011;32676;52.630;4.896;2023-03-01T00:16:55;14.02;;;8.40;;
46941;SDS011;32676;52.630;4.896;2023-03-01T00:19:22;13.95;;;7.63;;
46941;SDS011;32676;52.630;4.896;2023-03-01T00:21:50;20.40;;;10.00;;
46941;SDS011;32676;52.630;4.896;2023-03-01T00:24:16;15.88;;;9.18;;
46941;SDS011;32676;52.630;4.896;2023-03-01T00:26:43;17.55;;;10.55;;
46941;SDS011;32676;52.630;4.896;2023-03-01T00:29:09;19.45;;;9.55;;
46941;SDS011;32676;52.630;4.896;2023-03-01T00:31:36;15.20;;;8.82;;
46941;SDS011;32676;52.630;4.896;2023-03-01T00:34:03;15.93;;;8.35;;
46941;SDS011;32676;52.630;4.896;2023-03-01T00:36:32;18.50;;;9.38;;
46941;SDS011;32676;52.630;4.896;2023-03-01T00:39:02;21.15;;;8.77;;
46941;SDS011;32676;52.630;4.896;2023-03-01T00:41:29;18.10;;;9.30;;
46941;SDS011;32676;52.630;4.896;2023-03-01T00:43:56;18.60;;;8.68;;
46941;SDS011;32676;52.630;4.896;2023-03-01T00:46:23;14.77;;;10.07;;
46941;SDS011;32676;52.630;4.896;2023-03-01T00:48:51;16.15;;;8.13;;
46941;SDS011;32676;52.630;4.896;2023-03-01T00:51:18;17.15;;;8.68;;
46941;SDS011;32676;52.630;4.896;2023-03-01T00:53:47;16.55;;;8.93;;
46941;SDS011;32676;52.630;4.896;2023-03-01T00:56:17;21.17;;;10.23;;
46941;SDS011;32676;52.630;4.896;2023-03-01T00:58:43;14.88;;;9.15;;
46941;SDS011;32676;52.630;4.896;2023-03-01T01:01:11;14.80;;;7.85;;
46941;SDS011;32676;52.630;4.896;2023-03-01T01:03:44;14.27;;;8.18;;
46941;SDS011;32676;52.630;4.896;2023-03-01T01:06:18;22.92;;;9.75;;
46941;SDS011;32676;52.630;4.896;2023-03-01T01:08:46;17.17;;;8.32;;
46941;SDS011;32676;52.630;4.896;2023-03-01T01:11:13;20.42;;;8.35;;
46941;SDS011;32676;52.630;4.896;2023-03-01T01:13:43;17.52;;;9.48;;
46941;SDS011;32676;52.630;4.896;2023-03-01T01:16:10;16.27;;;8.75;;
46941;SDS011;32676;52.630;4.896;2023-03-01T01:18:37;26.05;;;9.18;;
46941;SDS011;32676;52.630;4.896;2023-03-01T01:21:04;16.15;;;8.07;;
46941;SDS011;32676;52.630;4.896;2023-03-01T01:23:32;18.40;;;8.77;;
46941;SDS011;32676;52.630;4.896;2023-03-01T01:26:02;14.10;;;8.10;;
46941;SDS011;32676;52.630;4.896;2023-03-01T01:28:30;15.15;;;8.43;;
46941;SDS011;32676;52.630;4.896;2023-03-01T01:30:58;17.73;;;8.30;;
46941;SDS011;32676;52.630;4.896;2023-03-01T01:33:24;17.08;;;9.10;;
46941;SDS011;32676;52.630;4.896;2023-03-01T01:35:51;15.13;;;8.55;;
46941;SDS011;32676;52.630;4.896;2023-03-01T01:38:22;18.58;;;8.45;;
46941;SDS011;32676;52.630;4.896;2023-03-01T01:40:49;13.63;;;7.38;;
46941;SDS011;32676;52.630;4.896;2023-03-01T01:43:18;16.00;;;7.75;;
46941;SDS011;32676;52.630;4.896;2023-03-01T01:45:47;15.38;;;7.78;;
46941;SDS011;32676;52.630;4.896;2023-03-01T01:48:21;14.85;;;9.50;;
46941;SDS011;32676;52.630;4.896;2023-03-01T01:50:52;16.85;;;8.65;;
46941;SDS011;32676;52.630;4.896;2023-03-01T01:53:25;14.13;;;7.82;;
46941;SDS011;32676;52.630;4.896;2023-03-01T01:55:53;19.15;;;9.73;;
46941;SDS011;32676;52.630;4.896;2023-03-01T01:58:22;19.63;;;9.38;;
46941;SDS011;32676;52.630;4.896;2023-03-01T02:00:51;21.38;;;8.20;;
46941;SDS011;32676;52.630;4.896;2023-03-01T02:03:19;17.33;;;7.78;;
46941;SDS011;32676;52.630;4.896;2023-03-01T02:08:23;19.10;;;9.95;;
46941;SDS011;32676;52.630;4.896;2023-03-01T02:10:53;19.80;;;9.88;;
46941;SDS011;32676;52.630;4.896;2023-03-01T02:13:21;15.98;;;8.77;;
46941;SDS011;32676;52.630;4.896;2023-03-01T02:15:48;20.40;;;10.65;;
46941;SDS011;32676;52.630;4.896;2023-03-01T02:18:16;21.40;;;11.40;;
46941;SDS011;32676;52.630;4.896;2023-03-01T02:20:48;19.60;;;10.25;;
46941;SDS011;32676;52.630;4.896;2023-03-01T02:23:24;17.42;;;9.00;;
46941;SDS011;32676;52.630;4.896;2023-03-01T02:25:54;16.02;;;8.65;;
46941;SDS011;32676;52.630;4.896;2023-03-01T02:28:30;20.40;;;10.13;;
46941;SDS011;32676;52.630;4.896;2023-03-01T02:30:57;19.02;;;10.63;;
46941;SDS011;32676;52.630;4.896;2023-03-01T02:33:41;16.50;;;9.07;;
46941;SDS011;32676;52.630;4.896;2023-03-01T02:36:09;16.58;;;8.85;;
46941;SDS011;32676;52.630;4.896;2023-03-01T02:38:40;17.70;;;9.65;;
46941;SDS011;32676;52.630;4.896;2023-03-01T02:41:07;15.93;;;10.02;;
46941;SDS011;32676;52.630;4.896;2023-03-01T02:43:37;20.95;;;9.82;;
46941;SDS011;32676;52.630;4.896;2023-03-01T02:46:07;16.63;;;9.52;;
46941;SDS011;32676;52.630;4.896;2023-03-01T02:48:41;18.92;;;10.00;;
46941;SDS011;32676;52.630;4.896;2023-03-01T02:51:10;20.75;;;9.95;;
46941;SDS011;32676;52.630;4.896;2023-03-01T02:53:53;19.52;;;9.00;;
46941;SDS011;32676;52.630;4.896;2023-03-01T02:56:25;18.35;;;8.57;;
46941;SDS011;32676;52.630;4.896;2023-03-01T02:58:53;16.05;;;9.32;;
46941;SDS011;32676;52.630;4.896;2023-03-01T03:01:20;19.85;;;9.93;;
46941;SDS011;32676;52.630;4.896;2023-03-01T03:03:47;19.45;;;9.27;;
46941;SDS011;32676;52.630;4.896;2023-03-01T03:06:13;17.42;;;10.32;;
46941;SDS011;32676;52.630;4.896;2023-03-01T03:08:40;17.58;;;9.48;;
46941;SDS011;32676;52.630;4.896;2023-03-01T03:11:06;16.60;;;9.68;;
46941;SDS011;32676;52.630;4.896;2023-03-01T03:13:35;18.00;;;10.27;;
46941;SDS011;32676;52.630;4.896;2023-03-01T03:16:03;22.92;;;9.93;;
46941;SDS011;32676;52.630;4.896;2023-03-01T03:18:31;19.77;;;10.43;;
46941;SDS011;32676;52.630;4.896;2023-03-01T03:20:57;19.15;;;10.30;;
46941;SDS011;32676;52.630;4.896;2023-03-01T03:23:24;17.67;;;10.98;;
46941;SDS011;32676;52.630;4.896;2023-03-01T03:25:51;19.23;;;10.50;;
46941;SDS011;32676;52.630;4.896;2023-03-01T03:28:17;23.42;;;11.02;;
46941;SDS011;32676;52.630;4.896;2023-03-01T03:30:44;24.42;;;12.00;;
46941;SDS011;32676;52.630;4.896;2023-03-01T03:33:13;20.45;;;11.75;;
46941;SDS011;32676;52.630;4.896;2023-03-01T03:35:40;20.52;;;11.20;;
46941;SDS011;32676;52.630;4.896;2023-03-01T03:38:09;18.10;;;11.30;;
46941;SDS011;32676;52.630;4.896;2023-03-01T03:40:42;26.38;;;11.55;;
46941;SDS011;32676;52.630;4.896;2023-03-01T03:43:11;27.75;;;12.88;;
46941;SDS011;32676;52.630;4.896;2023-03-01T03:45:39;19.58;;;11.30;;
46941;SDS011;32676;52.630;4.896;2023-03-01T03:48:06;28.70;;;12.60;;
46941;SDS011;32676;52.630;4.896;2023-03-01T03:50:35;21.10;;;11.35;;
46941;SDS011;32676;52.630;4.896;2023-03-01T03:53:04;26.25;;;11.40;;
46941;SDS011;32676;52.630;4.896;2023-03-01T03:55:32;19.55;;;11.63;;
46941;SDS011;32676;52.630;4.896;2023-03-01T03:57:59;19.38;;;11.00;;
46941;SDS011;32676;52.630;4.896;2023-03-01T04:00:31;20.35;;;12.30;;
46941;SDS011;32676;52.630;4.896;2023-03-01T04:02:59;20.65;;;11.55;;
46941;SDS011;32676;52.630;4.896;2023-03-01T04:05:26;20.02;;;10.23;;
46941;SDS011;32676;52.630;4.896;2023-03-01T04:07:55;31.17;;;13.75;;
46941;SDS011;32676;52.630;4.896;2023-03-01T04:10:32;27.90;;;11.05;;
46941;SDS011;32676;52.630;4.896;2023-03-01T04:13:00;20.92;;;9.88;;
46941;SDS011;32676;52.630;4.896;2023-03-01T04:15:27;16.80;;;8.57;;
46941;SDS011;32676;52.630;4.896;2023-03-01T04:17:54;13.13;;;7.38;;
46941;SDS011;32676;52.630;4.896;2023-03-01T04:20:22;39.60;;;12.40;;
46941;SDS011;32676;52.630;4.896;2023-03-01T04:22:51;15.65;;;8.05;;
46941;SDS011;32676;52.630;4.896;2023-03-01T04:25:23;22.05;;;10.38;;
46941;SDS011;32676;52.630;4.896;2023-03-01T04:27:50;16.23;;;8.95;;
46941;SDS011;32676;52.630;4.896;2023-03-01T04:30:18;12.80;;;7.40;;
46941;SDS011;32676;52.630;4.896;2023-03-01T04:32:45;18.95;;;9.57;;
46941;SDS011;32676;52.630;4.896;2023-03-01T04:35:11;16.60;;;8.85;;
46941;SDS011;32676;52.630;4.896;2023-03-01T04:37:38;13.27;;;6.75;;
46941;SDS011;32676;52.630;4.896;2023-03-01T04:40:07;15.02;;;8.23;;
46941;SDS011;32676;52.630;4.896;2023-03-01T04:42:42;13.43;;;7.90;;
46941;SDS011;32676;52.630;4.896;2023-03-01T04:45:09;18.45;;;10.27;;
46941;SDS011;32676;52.630;4.896;2023-03-01T04:47:38;171.27;;;17.70;;
46941;SDS011;32676;52.630;4.896;2023-03-01T04:50:05;137.80;;;15.55;;
46941;SDS011;32676;52.630;4.896;2023-03-01T04:52:33;130.90;;;14.55;;
46941;SDS011;32676;52.630;4.896;2023-03-01T04:55:00;192.82;;;17.55;;
46941;SDS011;32676;52.630;4.896;2023-03-01T04:57:27;74.97;;;11.57;;
46941;SDS011;32676;52.630;4.896;2023-03-01T04:59:54;55.65;;;10.77;;
46941;SDS011;32676;52.630;4.896;2023-03-01T05:02:21;224.55;;;15.20;;
46941;SDS011;32676;52.630;4.896;2023-03-01T05:04:48;122.88;;;14.25;;
46941;SDS011;32676;52.630;4.896;2023-03-01T05:07:14;141.55;;;13.73;;
46941;SDS011;32676;52.630;4.896;2023-03-01T05:09:44;98.28;;;10.65;;
46941;SDS011;32676;52.630;4.896;2023-03-01T05:12:10;111.20;;;11.68;;
46941;SDS011;32676;52.630;4.896;2023-03-01T05:14:37;59.40;;;8.98;;
46941;SDS011;32676;52.630;4.896;2023-03-01T05:17:05;16.73;;;6.03;;
46941;SDS011;32676;52.630;4.896;2023-03-01T05:19:32;62.53;;;7.75;;
46941;SDS011;32676;52.630;4.896;2023-03-01T05:21:59;34.95;;;6.28;;
46941;SDS011;32676;52.630;4.896;2023-03-01T05:24:30;18.38;;;6.45;;
46941;SDS011;32676;52.630;4.896;2023-03-01T05:26:58;13.82;;;6.18;;
46941;SDS011;32676;52.630;4.896;2023-03-01T05:29:25;31.77;;;8.75;;
46941;SDS011;32676;52.630;4.896;2023-03-01T05:31:53;22.23;;;9.07;;
46941;SDS011;32676;52.630;4.896;2023-03-01T05:34:24;21.75;;;7.20;;
46941;SDS011;32676;52.630;4.896;2023-03-01T05:36:51;26.17;;;9.27;;
46941;SDS011;32676;52.630;4.896;2023-03-01T05:39:18;23.38;;;8.50;;
46941;SDS011;32676;52.630;4.896;2023-03-01T05:41:46;16.38;;;7.55;;
46941;SDS011;32676;52.630;4.896;2023-03-01T05:44:12;25.48;;;10.50;;
46941;SDS011;32676;52.630;4.896;2023-03-01T05:46:39;18.10;;;9.50;;
46941;SDS011;32676;52.630;4.896;2023-03-01T05:49:05;17.88;;;6.50;;
46941;SDS011;32676;52.630;4.896;2023-03-01T05:51:33;20.50;;;7.15;;
46941;SDS011;32676;52.630;4.896;2023-03-01T05:54:00;26.63;;;8.98;;
46941;SDS011;32676;52.630;4.896;2023-03-01T05:56:26;23.88;;;6.80;;
46941;SDS011;32676;52.630;4.896;2023-03-01T05:58:54;197.38;;;13.80;;
46941;SDS011;32676;52.630;4.896;2023-03-01T06:01:20;97.53;;;9.20;;
46941;SDS011;32676;52.630;4.896;2023-03-01T06:03:47;85.88;;;7.90;;
46941;SDS011;32676;52.630;4.896;2023-03-01T06:06:13;159.48;;;12.25;;
46941;SDS011;32676;52.630;4.896;2023-03-01T06:08:41;164.25;;;12.85;;
46941;SDS011;32676;52.630;4.896;2023-03-01T06:11:07;113.90;;;11.25;;
46941;SDS011;32676;52.630;4.896;2023-03-01T06:13:34;187.98;;;15.40;;
46941;SDS011;32676;52.630;4.896;2023-03-01T06:16:03;118.22;;;14.02;;
46941;SDS011;32676;52.630;4.896;2023-03-01T06:18:30;179.48;;;17.27;;
46941;SDS011;32676;52.630;4.896;2023-03-01T06:20:57;227.80;;;18.17;;
46941;SDS011;32676;52.630;4.896;2023-03-01T06:23:23;226.77;;;18.77;;
46941;SDS011;32676;52.630;4.896;2023-03-01T06:25:52;374.77;;;26.33;;
46941;SDS011;32676;52.630;4.896;2023-03-01T06:28:19;232.73;;;18.02;;
46941;SDS011;32676;52.630;4.896;2023-03-01T06:30:46;386.90;;;27.58;;
46941;SDS011;32676;52.630;4.896;2023-03-01T06:33:13;146.55;;;14.65;;
46941;SDS011;32676;52.630;4.896;2023-03-01T06:35:39;122.68;;;15.90;;
46941;SDS011;32676;52.630;4.896;2023-03-01T06:38:06;60.78;;;11.15;;
46941;SDS011;32676;52.630;4.896;2023-03-01T06:40:32;132.90;;;15.60;;
46941;SDS011;32676;52.630;4.896;2023-03-01T06:43:01;60.72;;;11.05;;
46941;SDS011;32676;52.630;4.896;2023-03-01T06:45:28;90.63;;;14.55;;
46941;SDS011;32676;52.630;4.896;2023-03-01T06:48:05;92.60;;;20.88;;
46941;SDS011;32676;52.630;4.896;2023-03-01T06:50:33;124.50;;;18.52;;
46941;SDS011;32676;52.630;4.896;2023-03-01T06:53:00;96.30;;;26.13;;
46941;SDS011;32676;52.630;4.896;2023-03-01T06:55:27;61.60;;;11.93;;
46941;SDS011;32676;52.630;4.896;2023-03-01T06:57:54;37.10;;;12.93;;
46941;SDS011;32676;52.630;4.896;2023-03-01T07:00:23;101.80;;;22.08;;
46941;SDS011;32676;52.630;4.896;2023-03-01T07:02:50;42.90;;;15.30;;
46941;SDS011;32676;52.630;4.896;2023-03-01T07:05:17;38.15;;;14.68;;
46941;SDS011;32676;52.630;4.896;2023-03-01T07:07:43;21.58;;;11.05;;
46941;SDS011;32676;52.630;4.896;2023-03-01T07:10:10;32.00;;;15.75;;
46941;SDS011;32676;52.630;4.896;2023-03-01T07:12:37;92.72;;;45.72;;
46941;SDS011;32676;52.630;4.896;2023-03-01T07:15:04;35.10;;;19.02;;
46941;SDS011;32676;52.630;4.896;2023-03-01T07:17:35;23.88;;;11.93;;
46941;SDS011;32676;52.630;4.896;2023-03-01T07:20:02;19.83;;;11.30;;
46941;SDS011;32676;52.630;4.896;2023-03-01T07:22:29;21.10;;;12.68;;
46941;SDS011;32676;52.630;4.896;2023-03-01T07:24:55;16.35;;;9.65;;
46941;SDS011;32676;52.630;4.896;2023-03-01T07:27:22;13.38;;;8.00;;
46941;SDS011;32676;52.630;4.896;2023-03-01T07:29:48;17.90;;;9.38;;
46941;SDS011;32676;52.630;4.896;2023-03-01T07:32:15;18.55;;;8.85;;
46941;SDS011;32676;52.630;4.896;2023-03-01T07:34:43;18.13;;;8.60;;
46941;SDS011;32676;52.630;4.896;2023-03-01T07:37:09;16.58;;;9.07;;
46941;SDS011;32676;52.630;4.896;2023-03-01T07:39:36;14.13;;;7.53;;
46941;SDS011;32676;52.630;4.896;2023-03-01T07:42:02;34.70;;;13.48;;
46941;SDS011;32676;52.630;4.896;2023-03-01T07:44:29;20.42;;;10.75;;
46941;SDS011;32676;52.630;4.896;2023-03-01T07:46:55;18.52;;;10.18;;
46941;SDS011;32676;52.630;4.896;2023-03-01T07:49:23;18.58;;;9.52;;
46941;SDS011;32676;52.630;4.896;2023-03-01T07:51:52;16.05;;;8.82;;
46941;SDS011;32676;52.630;4.896;2023-03-01T07:54:19;16.80;;;9.32;;
46941;SDS011;32676;52.630;4.896;2023-03-01T07:56:45;17.35;;;9.60;;
46941;SDS011;32676;52.630;4.896;2023-03-01T07:59:12;16.30;;;8.85;;
46941;SDS011;32676;52.630;4.896;2023-03-01T08:01:38;19.05;;;10.13;;
46941;SDS011;32676;52.630;4.896;2023-03-01T08:04:05;18.45;;;10.75;;
46941;SDS011;32676;52.630;4.896;2023-03-01T08:06:33;21.02;;;12.52;;
46941;SDS011;32676;52.630;4.896;2023-03-01T08:09:01;24.25;;;13.55;;
46941;SDS011;32676;52.630;4.896;2023-03-01T08:11:28;22.83;;;11.45;;
46941;SDS011;32676;52.630;4.896;2023-03-01T08:13:55;22.52;;;11.93;;
46941;SDS011;32676;52.630;4.896;2023-03-01T08:16:23;19.23;;;10.13;;
46941;SDS011;32676;52.630;4.896;2023-03-01T08:18:50;18.48;;;9.35;;
46941;SDS011;32676;52.630;4.896;2023-03-01T08:21:17;21.40;;;11.55;;
46941;SDS011;32676;52.630;4.896;2023-03-01T08:23:44;19.38;;;11.02;;
46941;SDS011;32676;52.630;4.896;2023-03-01T08:26:12;20.90;;;10.23;;
46941;SDS011;32676;52.630;4.896;2023-03-01T08:28:40;22.70;;;11.48;;
46941;SDS011;32676;52.630;4.896;2023-03-01T08:31:14;21.73;;;10.32;;
46941;SDS011;32676;52.630;4.896;2023-03-01T08:33:41;22.98;;;10.82;;
46941;SDS011;32676;52.630;4.896;2023-03-01T08:36:08;17.50;;;10.15;;
46941;SDS011;32676;52.630;4.896;2023-03-01T08:38:34;25.48;;;10.35;;
46941;SDS011;32676;52.630;4.896;2023-03-01T08:41:01;20.15;;;10.68;;
46941;SDS011;32676;52.630;4.896;2023-03-01T08:43:30;23.30;;;12.07;;
46941;SDS011;32676;52.630;4.896;2023-03-01T08:45:57;20.35;;;10.90;;
46941;SDS011;32676;52.630;4.896;2023-03-01T08:48:24;24.25;;;12.90;;
46941;SDS011;32676;52.630;4.896;2023-03-01T08:50:50;23.65;;;11.43;;
46941;SDS011;32676;52.630;4.896;2023-03-01T08:53:17;25.23;;;13.25;;
46941;SDS011;32676;52.630;4.896;2023-03-01T08:55:43;23.52;;;13.07;;
46941;SDS011;32676;52.630;4.896;2023-03-01T08:58:10;27.67;;;13.63;;
46941;SDS011;32676;52.630;4.896;2023-03-01T09:00:38;28.95;;;14.43;;
46941;SDS011;32676;52.630;4.896;2023-03-01T09:03:05;30.10;;;15.45;;
46941;SDS011;32676;52.630;4.896;2023-03-01T09:05:32;22.73;;;13.80;;
46941;SDS011;32676;52.630;4.896;2023-03-01T09:07:59;22.77;;;12.23;;
46941;SDS011;32676;52.630;4.896;2023-03-01T09:10:25;22.60;;;13.23;;
46941;SDS011;32676;52.630;4.896;2023-03-01T09:12:52;27.90;;;16.00;;
46941;SDS011;32676;52.630;4.896;2023-03-01T09:15:18;23.77;;;13.95;;
46941;SDS011;32676;52.630;4.896;2023-03-01T09:17:46;29.02;;;14.48;;
46941;SDS011;32676;52.630;4.896;2023-03-01T09:20:13;33.58;;;16.00;;
46941;SDS011;32676;52.630;4.896;2023-03-01T09:22:39;33.92;;;16.48;;
46941;SDS011;32676;52.630;4.896;2023-03-01T09:25:06;25.92;;;14.77;;
46941;SDS011;32676;52.630;4.896;2023-03-01T09:27:33;27.45;;;14.30;;
46941;SDS011;32676;52.630;4.896;2023-03-01T09:29:59;22.88;;;14.50;;
46941;SDS011;32676;52.630;4.896;2023-03-01T09:32:26;26.25;;;15.25;;
46941;SDS011;32676;52.630;4.896;2023-03-01T09:34:54;25.35;;;13.95;;
46941;SDS011;32676;52.630;4.896;2023-03-01T09:37:33;35.00;;;15.15;;
46941;SDS011;32676;52.630;4.896;2023-03-01T09:40:00;26.73;;;15.32;;
46941;SDS011;32676;52.630;4.896;2023-03-01T09:42:27;22.23;;;15.07;;
46941;SDS011;32676;52.630;4.896;2023-03-01T09:44:57;26.88;;;15.90;;
46941;SDS011;32676;52.630;4.896;2023-03-01T09:47:26;28.65;;;15.32;;
46941;SDS011;32676;52.630;4.896;2023-03-01T09:50:00;27.58;;;13.82;;
46941;SDS011;32676;52.630;4.896;2023-03-01T09:52:33;30.10;;;17.08;;
46941;SDS011;32676;52.630;4.896;2023-03-01T09:55:08;27.73;;;13.57;;
46941;SDS011;32676;52.630;4.896;2023-03-01T09:57:38;20.08;;;12.70;;
46941;SDS011;32676;52.630;4.896;2023-03-01T10:00:15;24.00;;;12.13;;
46941;SDS011;32676;52.630;4.896;2023-03-01T10:02:49;25.52;;;13.70;;
46941;SDS011;32676;52.630;4.896;2023-03-01T10:05:36;23.40;;;11.07;;
46941;SDS011;32676;52.630;4.896;2023-03-01T10:08:18;21.30;;;12.23;;
46941;SDS011;32676;52.630;4.896;2023-03-01T10:11:13;23.58;;;11.77;;
46941;SDS011;32676;52.630;4.896;2023-03-01T10:13:48;23.30;;;12.00;;
46941;SDS011;32676;52.630;4.896;2023-03-01T10:16:21;65.78;;;26.63;;
46941;SDS011;32676;52.630;4.896;2023-03-01T10:18:51;24.33;;;13.10;;
46941;SDS011;32676;52.630;4.896;2023-03-01T10:21:23;27.15;;;13.73;;
46941;SDS011;32676;52.630;4.896;2023-03-01T10:23:50;36.58;;;14.70;;
46941;SDS011;32676;52.630;4.896;2023-03-01T10:26:34;25.98;;;14.30;;
46941;SDS011;32676;52.630;4.896;2023-03-01T10:29:10;29.88;;;15.00;;
46941;SDS011;32676;52.630;4.896;2023-03-01T10:31:39;24.50;;;13.98;;
46941;SDS011;32676;52.630;4.896;2023-03-01T10:34:09;26.55;;;14.45;;
46941;SDS011;32676;52.630;4.896;2023-03-01T10:36:41;14.00;;;7.35;;
46941;SDS011;32676;52.630;4.896;2023-03-01T10:39:11;17.48;;;9.25;;
46941;SDS011;32676;52.630;4.896;2023-03-01T10:41:44;16.58;;;10.10;;
46941;SDS011;32676;52.630;4.896;2023-03-01T10:44:34;14.20;;;8.07;;
46941;SDS011;32676;52.630;4.896;2023-03-01T10:47:09;15.30;;;8.27;;
46941;SDS011;32676;52.630;4.896;2023-03-01T10:49:49;14.75;;;6.90;;
46941;SDS011;32676;52.630;4.896;2023-03-01T10:52:21;12.25;;;6.38;;
46941;SDS011;32676;52.630;4.896;2023-03-01T10:54:51;10.43;;;5.93;;
46941;SDS011;32676;52.630;4.896;2023-03-01T10:57:34;14.63;;;7.63;;
46941;SDS011;32676;52.630;4.896;2023-03-01T11:02:50;11.85;;;6.45;;
46941;SDS011;32676;52.630;4.896;2023-03-01T11:05:27;10.57;;;5.85;;
46941;SDS011;32676;52.630;4.896;2023-03-01T11:07:56;10.35;;;6.47;;
46941;SDS011;32676;52.630;4.896;2023-03-01T11:10:25;11.40;;;6.90;;
46941;SDS011;32676;52.630;4.896;2023-03-01T11:12:53;13.95;;;7.78;;
46941;SDS011;32676;52.630;4.896;2023-03-01T11:15:31;9.90;;;6.22;;
46941;SDS011;32676;52.630;4.896;2023-03-01T11:17:58;9.77;;;6.80;;
46941;SDS011;32676;52.630;4.896;2023-03-01T11:20:25;13.20;;;7.13;;
46941;SDS011;32676;52.630;4.896;2023-03-01T11:22:58;11.73;;;6.68;;
46941;SDS011;32676;52.630;4.896;2023-03-01T11:25:28;14.75;;;7.25;;
46941;SDS011;32676;52.630;4.896;2023-03-01T11:27:59;13.88;;;6.95;;
46941;SDS011;32676;52.630;4.896;2023-03-01T11:30:29;10.38;;;6.60;;
46941;SDS011;32676;52.630;4.896;2023-03-01T11:33:03;11.13;;;5.00;;
46941;SDS011;32676;52.630;4.896;2023-03-01T11:35:37;12.48;;;6.15;;
46941;SDS011;32676;52.630;4.896;2023-03-01T11:38:17;13.18;;;7.07;;
46941;SDS011;32676;52.630;4.896;2023-03-01T11:40:48;11.77;;;6.65;;
46941;SDS011;32676;52.630;4.896;2023-03-01T11:43:20;14.77;;;7.88;;
46941;SDS011;32676;52.630;4.896;2023-03-01T11:45:56;12.45;;;6.78;;
46941;SDS011;32676;52.630;4.896;2023-03-01T11:48:45;14.65;;;7.82;;
46941;SDS011;32676;52.630;4.896;2023-03-01T11:51:21;17.33;;;7.60;;
46941;SDS011;32676;52.630;4.896;2023-03-01T11:53:59;19.70;;;7.07;;
46941;SDS011;32676;52.630;4.896;2023-03-01T11:56:34;10.27;;;6.88;;
46941;SDS011;32676;52.630;4.896;2023-03-01T11:59:11;12.77;;;7.13;;
46941;SDS011;32676;52.630;4.896;2023-03-01T12:02:10;15.15;;;8.02;;
46941;SDS011;32676;52.630;4.896;2023-03-01T12:05:14;13.85;;;7.05;;
46941;SDS011;32676;52.630;4.896;2023-03-01T12:07:51;12.60;;;7.97;;
46941;SDS011;32676;52.630;4.896;2023-03-01T12:10:25;13.95;;;7.47;;
46941;SDS011;32676;52.630;4.896;2023-03-01T12:12:58;10.15;;;6.03;;
46941;SDS011;32676;52.630;4.896;2023-03-01T12:15:58;13.75;;;6.68;;
46941;SDS011;32676;52.630;4.896;2023-03-01T12:21:47;14.15;;;6.55;;
46941;SDS011;32676;52.630;4.896;2023-03-01T12:24:41;11.55;;;6.57;;
46941;SDS011;32676;52.630;4.896;2023-03-01T12:27:22;11.50;;;6.72;;
46941;SDS011;32676;52.630;4.896;2023-03-01T12:30:00;11.02;;;6.07;;
46941;SDS011;32676;52.630;4.896;2023-03-01T12:32:39;12.60;;;6.38;;
46941;SDS011;32676;52.630;4.896;2023-03-01T12:38:06;10.68;;;6.20;;
46941;SDS011;32676;52.630;4.896;2023-03-01T12:40:46;12.43;;;6.25;;
46941;SDS011;32676;52.630;4.896;2023-03-01T12:43:31;14.23;;;7.15;;
46941;SDS011;32676;52.630;4.896;2023-03-01T12:46:15;11.80;;;6.07;;
46941;SDS011;32676;52.630;4.896;2023-03-01T12:48:53;11.55;;;6.43;;
46941;SDS011;32676;52.630;4.896;2023-03-01T12:51:29;13.90;;;7.13;;
46941;SDS011;32676;52.630;4.896;2023-03-01T12:53:58;13.05;;;7.18;;
46941;SDS011;32676;52.630;4.896;2023-03-01T12:56:28;13.73;;;6.93;;
46941;SDS011;32676;52.630;4.896;2023-03-01T12:59:01;13.05;;;7.93;;
46941;SDS011;32676;52.630;4.896;2023-03-01T13:01:38;13.60;;;7.63;;
46941;SDS011;32676;52.630;4.896;2023-03-01T13:04:14;14.45;;;7.63;;
46941;SDS011;32676;52.630;4.896;2023-03-01T13:06:51;10.77;;;5.40;;
46941;SDS011;32676;52.630;4.896;2023-03-01T13:09:25;12.60;;;7.78;;
46941;SDS011;32676;52.630;4.896;2023-03-01T13:11:57;12.73;;;7.10;;
46941;SDS011;32676;52.630;4.896;2023-03-01T13:14:47;14.73;;;7.93;;
46941;SDS011;32676;52.630;4.896;2023-03-01T13:17:29;15.63;;;8.02;;
46941;SDS011;32676;52.630;4.896;2023-03-01T13:19:58;16.60;;;8.05;;
46941;SDS011;32676;52.630;4.896;2023-03-01T13:22:26;17.30;;;7.63;;
46941;SDS011;32676;52.630;4.896;2023-03-01T13:25:10;19.35;;;8.27;;
46941;SDS011;32676;52.630;4.896;2023-03-01T13:27:39;15.48;;;7.43;;
46941;SDS011;32676;52.630;4.896;2023-03-01T13:30:12;16.30;;;7.55;;
46941;SDS011;32676;52.630;4.896;2023-03-01T13:36:11;17.27;;;8.30;;
46941;SDS011;32676;52.630;4.896;2023-03-01T13:39:04;18.13;;;8.13;;
46941;SDS011;32676;52.630;4.896;2023-03-01T13:41:52;15.10;;;8.15;;
46941;SDS011;32676;52.630;4.896;2023-03-01T13:44:21;17.95;;;8.20;;
46941;SDS011;32676;52.630;4.896;2023-03-01T13:46:56;16.25;;;8.60;;
46941;SDS011;32676;52.630;4.896;2023-03-01T13:49:25;15.05;;;8.77;;
46941;SDS011;32676;52.630;4.896;2023-03-01T13:51:55;16.92;;;8.13;;
46941;SDS011;32676;52.630;4.896;2023-03-01T13:54:24;18.48;;;8.70;;
46941;SDS011;32676;52.630;4.896;2023-03-01T13:56:55;19.67;;;9.05;;
46941;SDS011;32676;52.630;4.896;2023-03-01T13:59:23;14.52;;;9.32;;
46941;SDS011;32676;52.630;4.896;2023-03-01T14:01:56;24.13;;;12.27;;
46941;SDS011;32676;52.630;4.896;2023-03-01T14:04:24;17.92;;;9.52;;
46941;SDS011;32676;52.630;4.896;2023-03-01T14:06:52;21.10;;;10.90;;
46941;SDS011;32676;52.630;4.896;2023-03-01T14:09:34;21.23;;;12.38;;
46941;SDS011;32676;52.630;4.896;2023-03-01T14:12:10;18.58;;;10.82;;
46941;SDS011;32676;52.630;4.896;2023-03-01T14:14:48;26.58;;;15.30;;
46941;SDS011;32676;52.630;4.896;2023-03-01T14:17:27;20.40;;;11.43;;
46941;SDS011;32676;52.630;4.896;2023-03-01T14:20:18;42.38;;;18.98;;
46941;SDS011;32676;52.630;4.896;2023-03-01T14:22:47;16.48;;;10.63;;
46941;SDS011;32676;52.630;4.896;2023-03-01T14:25:20;16.30;;;9.70;;
46941;SDS011;32676;52.630;4.896;2023-03-01T14:27:54;22.63;;;11.32;;
46941;SDS011;32676;52.630;4.896;2023-03-01T14:30:23;18.63;;;9.98;;
46941;SDS011;32676;52.630;4.896;2023-03-01T14:32:53;20.10;;;9.65;;
46941;SDS011;32676;52.630;4.896;2023-03-01T14:35:22;19.42;;;10.10;;
46941;SDS011;32676;52.630;4.896;2023-03-01T14:37:51;20.02;;;9.75;;
46941;SDS011;32676;52.630;4.896;2023-03-01T14:40:25;17.63;;;9.85;;
46941;SDS011;32676;52.630;4.896;2023-03-01T14:42:53;18.77;;;10.57;;
46941;SDS011;32676;52.630;4.896;2023-03-01T14:45:24;17.95;;;10.80;;
46941;SDS011;32676;52.630;4.896;2023-03-01T14:47:54;18.60;;;10.32;;
46941;SDS011;32676;52.630;4.896;2023-03-01T14:50:23;17.88;;;8.65;;
46941;SDS011;32676;52.630;4.896;2023-03-01T14:52:52;18.67;;;11.50;;
46941;SDS011;32676;52.630;4.896;2023-03-01T14:55:24;31.23;;;16.23;;
46941;SDS011;32676;52.630;4.896;2023-03-01T14:57:55;18.90;;;10.70;;
46941;SDS011;32676;52.630;4.896;2023-03-01T15:00:24;21.02;;;9.85;;
46941;SDS011;32676;52.630;4.896;2023-03-01T15:02:53;19.50;;;10.30;;